Time;durP1;ratioP1;P1;durP2;ratioP2;P2;SDS_P1;SDS_P2;PMS_P1;PMS_P2;Temp;Humidity;BMP_temperature;BMP_pressure;BME280_temperature;BME280_humidity;BME280_pressure;Samples;Min_cycle;Max_cycle;Signal;HPM_P1;HPM_P2
2021/05/24 00:00:05;;;;;;;1.40;0.80;;;;;;;6.56;96.15;95662.94;5041933;28;20615;-65
2021/05/24 00:02:34;;;;;;;1.20;0.67;;;;;;;6.54;96.72;95660.47;5052660;28;20213;-66
2021/05/24 00:05:02;;;;;;;1.30;1.20;;;;;;;6.52;96.81;95659.84;5046541;28;20304;-66
2021/05/24 00:07:30;;;;;;;1.23;0.50;;;;;;;6.52;96.59;95654.59;5040633;28;20611;-66
2021/05/24 00:09:58;;;;;;;1.23;1.00;;;;;;;6.52;97.04;95646.72;5048146;28;20275;-65
2021/05/24 00:12:26;;;;;;;0.77;0.77;;;;;;;6.53;97.09;95635.25;5061543;28;20310;-66
2021/05/24 00:14:59;;;;;;;0.93;0.67;;;;;;;6.55;97.08;95624.59;5039663;28;20226;-65
2021/05/24 00:17:26;;;;;;;0.70;0.70;;;;;;;6.57;96.86;95628.69;5058717;28;20407;-67
2021/05/24 00:19:54;;;;;;;1.20;1.20;;;;;;;6.56;96.70;95627.06;5045576;28;20321;-66
2021/05/24 00:22:21;;;;;;;0.87;0.87;;;;;;;6.61;96.81;95628.41;5049052;28;20262;-66
2021/05/24 00:24:50;;;;;;;1.93;0.70;;;;;;;6.61;96.60;95623.16;5028862;28;20757;-66
2021/05/24 00:27:17;;;;;;;3.27;0.77;;;;;;;6.61;96.67;95618.72;5047390;28;20513;-65
2021/05/24 00:29:44;;;;;;;0.57;0.53;;;;;;;6.62;96.47;95609.88;5033848;28;20276;-66
2021/05/24 00:32:12;;;;;;;1.13;1.03;;;;;;;6.65;96.21;95606.09;5006997;28;20574;-66
2021/05/24 00:34:39;;;;;;;0.60;0.60;;;;;;;6.65;96.44;95596.44;5014346;28;20302;-66
2021/05/24 00:37:06;;;;;;;0.70;0.50;;;;;;;6.64;96.31;95599.22;5034465;28;20312;-66
2021/05/24 00:39:33;;;;;;;0.80;0.80;;;;;;;6.64;96.29;95597.41;5042010;28;20287;-66
2021/05/24 00:42:02;;;;;;;0.67;0.60;;;;;;;6.65;96.00;95595.63;5036453;28;20241;-66
2021/05/24 00:44:30;;;;;;;1.07;0.90;;;;;;;6.64;96.16;95602.66;5044978;28;20237;-66
2021/05/24 00:46:57;;;;;;;0.97;0.47;;;;;;;6.57;95.88;95599.84;5037877;28;20245;-65
2021/05/24 00:49:25;;;;;;;0.90;0.70;;;;;;;6.53;96.01;95593.31;5042693;28;20285;-66
2021/05/24 00:51:54;;;;;;;0.60;0.60;;;;;;;6.49;95.78;95573.66;5040697;28;20229;-66
2021/05/24 00:54:23;;;;;;;2.10;0.53;;;;;;;6.46;96.06;95581.00;5044476;28;20317;-65
2021/05/24 00:56:53;;;;;;;0.83;0.83;;;;;;;6.42;96.25;95577.88;5042613;28;20233;-65
2021/05/24 00:59:21;;;;;;;0.73;0.73;;;;;;;6.40;96.33;95571.16;5039588;28;20589;-66
2021/05/24 01:01:49;;;;;;;0.53;0.53;;;;;;;6.40;96.68;95574.63;5039699;28;20281;-66
2021/05/24 01:04:17;;;;;;;1.60;0.50;;;;;;;6.39;96.46;95570.31;5028617;28;20284;-66
2021/05/24 01:06:45;;;;;;;0.67;0.67;;;;;;;6.37;96.49;95569.66;5035817;28;20974;-66
2021/05/24 01:09:13;;;;;;;0.73;0.73;;;;;;;6.31;96.25;95570.31;5042908;28;20243;-66
2021/05/24 01:11:40;;;;;;;0.60;0.60;;;;;;;6.26;96.51;95556.88;5044287;28;20219;-66
2021/05/24 01:14:07;;;;;;;0.67;0.50;;;;;;;6.27;96.74;95545.41;5044648;28;20310;-65
2021/05/24 01:16:36;;;;;;;1.23;0.73;;;;;;;6.24;96.80;95537.88;5039392;28;20223;-66
2021/05/24 01:19:03;;;;;;;0.70;0.70;;;;;;;6.23;97.00;95546.72;5037947;28;20218;-67
2021/05/24 01:21:32;;;;;;;2.10;0.83;;;;;;;6.20;96.63;95541.78;5043097;28;20632;-66
2021/05/24 01:24:00;;;;;;;0.37;0.37;;;;;;;6.18;96.76;95543.75;5031990;28;20302;-66
2021/05/24 01:26:28;;;;;;;0.60;0.60;;;;;;;6.12;96.83;95539.94;5043134;28;20226;-66
2021/05/24 01:28:56;;;;;;;0.47;0.47;;;;;;;6.10;96.67;95535.84;5035085;28;20225;-66
2021/05/24 01:31:23;;;;;;;1.13;1.13;;;;;;;6.07;96.69;95530.94;5022441;28;20297;-66
2021/05/24 01:33:51;;;;;;;0.70;0.57;;;;;;;6.08;96.81;95532.59;5022060;28;20225;-66
2021/05/24 01:36:18;;;;;;;0.70;0.70;;;;;;;6.04;96.76;95526.03;5020056;28;20281;-66
2021/05/24 01:38:46;;;;;;;0.97;0.97;;;;;;;6.04;96.95;95508.53;5020257;28;20254;-66
2021/05/24 01:41:14;;;;;;;1.07;0.90;;;;;;;5.99;97.04;95498.50;5008798;28;20223;-65
2021/05/24 01:43:41;;;;;;;0.80;0.80;;;;;;;5.93;97.02;95504.38;5024842;28;20244;-66
2021/05/24 01:46:09;;;;;;;0.40;0.40;;;;;;;5.93;97.18;95501.75;5026550;28;20462;-66
2021/05/24 01:48:37;;;;;;;0.60;0.60;;;;;;;5.94;97.31;95500.81;5033476;28;20264;-66
2021/05/24 01:51:06;;;;;;;1.50;0.40;;;;;;;5.91;97.08;95495.84;5004665;28;20304;-66
2021/05/24 01:53:35;;;;;;;0.60;0.50;;;;;;;5.90;97.39;95493.38;5023496;28;20751;-66
2021/05/24 01:56:05;;;;;;;0.60;0.50;;;;;;;5.90;97.18;95488.97;5025731;28;20297;-66
2021/05/24 01:58:33;;;;;;;0.30;0.30;;;;;;;5.91;97.34;95489.81;5025471;28;20232;-66
2021/05/24 02:01:03;;;;;;;0.50;0.50;;;;;;;5.91;97.36;95490.63;5023983;28;20278;-66
2021/05/24 02:03:31;;;;;;;2.43;0.87;;;;;;;5.90;97.68;95483.75;5029501;28;20212;-66
2021/05/24 02:06:00;;;;;;;2.30;0.93;;;;;;;5.87;97.37;95483.22;5014952;28;20314;-66
2021/05/24 02:08:28;;;;;;;1.60;1.00;;;;;;;5.77;97.34;95472.88;5029599;28;20305;-66
2021/05/24 02:10:55;;;;;;;1.80;0.60;;;;;;;5.77;97.55;95477.31;5028339;28;20250;-66
2021/05/24 02:13:27;;;;;;;0.77;0.70;;;;;;;5.80;97.18;95466.50;5031991;28;20219;-66
2021/05/24 02:15:55;;;;;;;0.60;0.60;;;;;;;5.82;97.69;95452.25;5027649;28;20361;-67
2021/05/24 02:18:23;;;;;;;0.63;0.63;;;;;;;5.82;97.60;95457.50;5022037;28;20368;-66
2021/05/24 02:20:50;;;;;;;0.93;0.93;;;;;;;5.84;97.77;95447.69;5022815;28;20247;-65
2021/05/24 02:23:18;;;;;;;0.80;0.80;;;;;;;5.85;97.75;95443.25;5017637;28;20222;-66
2021/05/24 02:25:45;;;;;;;0.67;0.60;;;;;;;5.86;97.81;95434.44;5008544;28;20293;-66
2021/05/24 02:28:13;;;;;;;0.63;0.63;;;;;;;5.84;97.51;95442.44;5009713;28;20309;-66
2021/05/24 02:30:41;;;;;;;0.87;0.87;;;;;;;5.85;97.40;95436.25;5011276;28;20254;-66
2021/05/24 02:33:08;;;;;;;0.93;0.93;;;;;;;5.86;97.16;95430.03;5010510;28;20224;-66
2021/05/24 02:35:36;;;;;;;0.83;0.83;;;;;;;5.87;97.16;95436.91;5022092;28;20685;-66
2021/05/24 02:38:04;;;;;;;1.43;1.30;;;;;;;5.85;96.80;95428.41;5019166;28;20220;-66
2021/05/24 02:40:32;;;;;;;2.70;2.27;;;;;;;5.90;97.16;95423.50;5011873;28;20228;-66
2021/05/24 02:43:01;;;;;;;0.90;0.90;;;;;;;5.86;97.14;95430.03;5013611;28;20314;-66
2021/05/24 02:45:28;;;;;;;3.50;0.87;;;;;;;5.85;97.19;95427.53;5006414;28;20260;-66
2021/05/24 02:47:58;;;;;;;0.80;0.80;;;;;;;5.82;96.93;95428.69;5022831;28;20223;-67
2021/05/24 02:50:29;;;;;;;1.83;1.73;;;;;;;5.81;97.07;95424.44;5028721;28;20256;-66
2021/05/24 02:52:56;;;;;;;1.53;1.43;;;;;;;5.80;97.37;95435.91;5008293;28;20282;-67
2021/05/24 02:55:24;;;;;;;1.33;0.93;;;;;;;5.82;97.18;95431.31;5010654;28;20778;-66
2021/05/24 02:57:52;;;;;;;1.10;1.07;;;;;;;5.81;97.53;95424.44;5025737;28;23747;-67
2021/05/24 03:00:22;;;;;;;0.97;0.97;;;;;;;5.83;97.67;95427.72;5004943;28;20307;-67
2021/05/24 03:02:50;;;;;;;0.90;0.80;;;;;;;5.83;97.47;95417.25;5012924;28;20255;-66
2021/05/24 03:05:20;;;;;;;0.60;0.60;;;;;;;5.83;97.41;95413.81;5025442;28;20305;-66
2021/05/24 03:07:48;;;;;;;0.87;0.87;;;;;;;5.82;97.34;95404.31;5026967;28;20322;-63
2021/05/24 03:10:18;;;;;;;1.30;1.20;;;;;;;5.79;97.18;95402.84;5017593;28;20264;-64
2021/05/24 03:12:46;;;;;;;1.43;1.33;;;;;;;5.78;97.16;95405.63;5031012;28;20273;-63
2021/05/24 03:15:15;;;;;;;0.67;0.67;;;;;;;5.75;97.26;95409.38;5033679;28;20227;-64
2021/05/24 03:17:43;;;;;;;1.50;1.40;;;;;;;5.75;97.34;95400.69;5031048;28;20281;-64
2021/05/24 03:20:13;;;;;;;1.57;0.97;;;;;;;5.76;97.39;95397.94;5044647;28;20243;-63
2021/05/24 03:22:42;;;;;;;1.03;0.70;;;;;;;5.75;97.26;95408.53;5029373;28;20281;-63
2021/05/24 03:25:12;;;;;;;0.53;0.53;;;;;;;5.68;97.31;95417.06;5027340;28;20227;-64
2021/05/24 03:27:40;;;;;;;0.77;0.77;;;;;;;5.67;97.32;95420.66;5027849;28;20228;-63
2021/05/24 03:30:09;;;;;;;1.00;1.00;;;;;;;5.63;97.35;95408.84;5024969;28;20715;-64
2021/05/24 03:32:37;;;;;;;0.80;0.80;;;;;;;5.68;97.48;95411.81;5030880;28;20228;-64
2021/05/24 03:35:07;;;;;;;1.03;1.03;;;;;;;5.65;97.45;95401.66;5031745;28;20261;-64
2021/05/24 03:37:35;;;;;;;0.63;0.60;;;;;;;5.65;97.50;95396.41;5040724;28;20222;-63
2021/05/24 03:40:06;;;;;;;1.53;0.80;;;;;;;5.66;97.35;95392.00;5041455;28;20269;-64
2021/05/24 03:42:34;;;;;;;1.00;1.00;;;;;;;5.63;97.09;95387.91;5031609;28;20696;-64
2021/05/24 03:45:02;;;;;;;2.00;0.70;;;;;;;5.62;97.20;95390.69;5010766;28;20347;-63
2021/05/24 03:47:30;;;;;;;1.00;0.90;;;;;;;5.61;96.85;95389.06;5007800;28;20235;-64
2021/05/24 03:49:58;;;;;;;1.20;1.20;;;;;;;5.63;96.80;95382.69;5021564;28;20483;-64
2021/05/24 03:52:25;;;;;;;1.20;0.80;;;;;;;5.61;96.74;95379.41;5018148;28;20220;-63
2021/05/24 03:54:53;;;;;;;0.77;0.77;;;;;;;5.62;96.73;95383.66;5019566;28;20294;-64
2021/05/24 03:57:22;;;;;;;1.10;1.10;;;;;;;5.64;96.85;95379.06;5018732;28;20305;-64
2021/05/24 03:59:49;;;;;;;1.30;1.20;;;;;;;5.66;97.02;95376.28;5017156;28;20240;-63
2021/05/24 04:02:16;;;;;;;0.90;0.80;;;;;;;5.68;96.84;95379.59;5023595;28;20697;-63
2021/05/24 04:04:45;;;;;;;1.23;1.00;;;;;;;5.67;96.69;95377.97;5026751;28;20247;-64
2021/05/24 04:07:19;;;;;;;0.90;0.90;;;;;;;5.66;96.70;95368.44;5014039;28;20286;-64
2021/05/24 04:09:47;;;;;;;1.77;1.67;;;;;;;5.67;96.66;95372.72;5020656;28;20243;-64
2021/05/24 04:12:15;;;;;;;1.00;1.00;;;;;;;5.66;96.94;95365.81;5010396;28;20286;-64
2021/05/24 04:14:43;;;;;;;1.90;1.37;;;;;;;5.74;96.93;95357.97;5014854;28;20269;-64
2021/05/24 04:17:13;;;;;;;1.50;1.40;;;;;;;5.79;97.36;95360.13;5019804;28;20294;-65
2021/05/24 04:19:43;;;;;;;3.07;1.83;;;;;;;5.81;97.28;95352.94;5025645;28;20247;-64
2021/05/24 04:22:11;;;;;;;0.93;0.93;;;;;;;5.79;97.00;95363.56;5022517;28;20266;-64
2021/05/24 04:24:38;;;;;;;0.80;0.80;;;;;;;5.80;97.32;95373.06;5027327;28;20407;-64
2021/05/24 04:27:06;;;;;;;1.20;1.10;;;;;;;5.81;97.05;95374.69;5006839;28;20315;-64
2021/05/24 04:29:33;;;;;;;0.80;0.80;;;;;;;5.86;97.18;95377.66;5016556;28;20292;-65
2021/05/24 04:32:01;;;;;;;1.07;1.07;;;;;;;5.92;97.11;95371.78;5027277;28;20295;-63
2021/05/24 04:34:28;;;;;;;1.10;1.10;;;;;;;5.98;97.11;95386.03;5012244;28;20312;-64
2021/05/24 04:36:56;;;;;;;1.10;1.00;;;;;;;6.06;97.21;95378.19;5012236;28;20252;-64
2021/05/24 04:39:23;;;;;;;1.10;0.97;;;;;;;6.09;97.43;95377.84;5022127;28;20233;-63
2021/05/24 04:41:50;;;;;;;1.93;1.27;;;;;;;6.11;97.20;95383.75;5012150;28;20295;-64
2021/05/24 04:44:19;;;;;;;0.80;0.73;;;;;;;6.12;97.06;95385.38;5017873;28;20223;-64
2021/05/24 04:46:47;;;;;;;1.13;1.13;;;;;;;6.15;97.04;95371.16;5009592;28;20644;-64
2021/05/24 04:49:16;;;;;;;0.90;0.90;;;;;;;6.17;96.73;95363.94;5015690;28;20226;-64
2021/05/24 04:51:44;;;;;;;1.83;0.63;;;;;;;6.18;96.61;95357.72;5010964;28;20228;-63
2021/05/24 04:54:11;;;;;;;6.23;1.57;;;;;;;6.18;96.45;95365.59;5023028;28;20263;-63
2021/05/24 04:56:39;;;;;;;1.83;1.73;;;;;;;6.23;96.49;95368.53;5023325;28;20295;-65
2021/05/24 04:59:06;;;;;;;1.00;0.83;;;;;;;6.26;96.41;95376.06;5033514;28;20511;-65
2021/05/24 05:01:34;;;;;;;0.47;0.47;;;;;;;6.34;96.42;95376.06;5042849;28;20253;-65
2021/05/24 05:04:02;;;;;;;0.80;0.80;;;;;;;6.43;96.53;95372.47;5036553;28;20227;-64
2021/05/24 05:06:31;;;;;;;2.63;1.00;;;;;;;6.49;96.92;95379.69;5039440;28;20227;-65
2021/05/24 05:08:58;;;;;;;1.23;1.00;;;;;;;6.55;96.58;95384.22;5047207;28;20223;-64
2021/05/24 05:11:25;;;;;;;2.03;0.90;;;;;;;6.62;96.21;95375.72;5054002;28;20284;-64
2021/05/24 05:13:52;;;;;;;5.53;5.13;;;;;;;6.68;95.79;95373.25;5055079;28;21332;-65
2021/05/24 05:16:20;;;;;;;5.27;4.97;;;;;;;6.73;94.83;95381.41;5032547;28;20231;-64
2021/05/24 05:18:47;;;;;;;5.70;5.40;;;;;;;6.76;94.63;95386.31;5057881;28;20571;-65
2021/05/24 05:21:15;;;;;;;3.77;3.57;;;;;;;6.88;94.48;95388.63;5037556;28;20250;-64
2021/05/24 05:23:43;;;;;;;1.50;1.40;;;;;;;6.96;94.44;95388.59;5045088;28;20453;-64
2021/05/24 05:26:10;;;;;;;1.50;1.40;;;;;;;7.06;94.55;95390.03;5029259;28;20749;-64
2021/05/24 05:28:39;;;;;;;1.03;0.50;;;;;;;7.12;94.15;95394.59;5029950;28;20658;-64
2021/05/24 05:31:06;;;;;;;0.73;0.70;;;;;;;7.20;93.97;95387.69;5039639;28;20451;-63
2021/05/24 05:33:34;;;;;;;0.40;0.40;;;;;;;7.29;92.61;95376.16;5038902;28;20362;-64
2021/05/24 05:36:01;;;;;;;4.97;0.90;;;;;;;7.30;91.72;95378.63;5035195;28;20640;-65
2021/05/24 05:38:30;;;;;;;0.93;0.80;;;;;;;7.35;91.82;95376.31;5040661;28;20329;-64
2021/05/24 05:40:59;;;;;;;0.90;0.90;;;;;;;7.37;92.29;95363.00;5044748;28;20646;-65
2021/05/24 05:43:26;;;;;;;0.67;0.67;;;;;;;7.41;92.25;95353.81;5035837;28;20644;-64
2021/05/24 05:45:54;;;;;;;1.70;1.60;;;;;;;7.53;92.53;95360.31;5026728;28;20232;-64
2021/05/24 05:48:21;;;;;;;1.20;0.77;;;;;;;7.57;92.36;95358.16;5013402;28;20238;-64
2021/05/24 05:50:48;;;;;;;0.47;0.40;;;;;;;7.64;92.21;95354.66;5004618;28;20252;-64
2021/05/24 05:53:19;;;;;;;1.53;0.50;;;;;;;7.76;91.70;95341.13;5005355;28;20700;-64
2021/05/24 05:55:47;;;;;;;1.30;0.33;;;;;;;7.83;91.70;95342.91;5010409;28;20313;-64
2021/05/24 05:58:15;;;;;;;0.70;0.60;;;;;;;7.86;91.50;95344.34;5022643;28;20731;-65
2021/05/24 06:00:42;;;;;;;0.50;0.50;;;;;;;7.96;91.51;95347.59;5026586;28;20224;-64
2021/05/24 06:03:11;;;;;;;1.97;0.77;;;;;;;8.13;90.96;95337.75;5047889;28;20225;-64
2021/05/24 06:05:38;;;;;;;0.70;0.70;;;;;;;8.31;91.02;95334.81;5045138;28;20290;-64
2021/05/24 06:08:06;;;;;;;0.50;0.50;;;;;;;8.43;90.02;95312.41;5040005;28;20249;-65
2021/05/24 06:10:34;;;;;;;0.60;0.40;;;;;;;8.55;89.86;95303.06;5031350;28;21733;-63
2021/05/24 06:13:03;;;;;;;0.30;0.30;;;;;;;8.65;89.26;95300.97;5042224;28;20482;-65
2021/05/24 06:15:31;;;;;;;0.63;0.53;;;;;;;8.81;88.04;95305.25;5048452;28;20797;-65
2021/05/24 06:17:58;;;;;;;1.27;1.27;;;;;;;8.88;87.44;95300.09;5030345;28;20789;-64
2021/05/24 06:20:26;;;;;;;1.00;0.60;;;;;;;8.94;87.49;95307.25;5023921;28;20279;-64
2021/05/24 06:22:53;;;;;;;0.43;0.20;;;;;;;9.02;86.83;95307.16;5023878;28;20259;-63
2021/05/24 06:25:21;;;;;;;0.40;0.40;;;;;;;9.13;86.64;95310.13;5031782;28;20255;-64
2021/05/24 06:27:48;;;;;;;1.40;0.57;;;;;;;9.23;86.73;95299.31;5024446;28;20331;-64
2021/05/24 06:30:16;;;;;;;1.13;0.20;;;;;;;9.35;86.02;95308.38;5035474;28;20246;-64
2021/05/24 06:32:45;;;;;;;0.33;0.33;;;;;;;9.43;85.58;95304.03;5051280;28;20247;-64
2021/05/24 06:35:12;;;;;;;1.03;0.77;;;;;;;9.54;85.85;95299.09;5042317;28;20277;-64
2021/05/24 06:37:39;;;;;;;1.60;0.40;;;;;;;9.65;84.30;95310.94;5044215;28;20590;-65
2021/05/24 06:40:08;;;;;;;1.20;0.70;;;;;;;9.65;83.73;95316.22;5028207;28;20365;-65
2021/05/24 06:42:35;;;;;;;0.30;0.30;;;;;;;9.84;84.57;95309.50;5044617;28;20474;-65
2021/05/24 06:45:05;;;;;;;0.33;0.33;;;;;;;9.96;82.84;95322.00;5044487;28;20222;-64
2021/05/24 06:47:32;;;;;;;0.77;0.77;;;;;;;10.08;82.82;95324.97;5018475;28;20249;-63
2021/05/24 06:50:02;;;;;;;0.40;0.40;;;;;;;10.24;82.14;95335.28;5019271;28;20299;-65
2021/05/24 06:52:29;;;;;;;0.53;0.47;;;;;;;10.39;82.33;95332.56;5020800;28;20796;-65
2021/05/24 06:54:57;;;;;;;0.47;0.40;;;;;;;10.59;82.15;95323.97;5026158;28;20230;-65
2021/05/24 06:57:24;;;;;;;0.83;0.37;;;;;;;10.67;80.71;95322.00;5036428;28;20585;-65
2021/05/24 06:59:51;;;;;;;0.37;0.33;;;;;;;10.80;81.60;95321.31;5029995;28;20727;-65
2021/05/24 07:02:19;;;;;;;3.00;1.27;;;;;;;10.91;80.97;95320.75;5019811;28;20604;-64
2021/05/24 07:04:46;;;;;;;0.50;0.33;;;;;;;11.05;79.21;95311.88;5021000;28;20251;-65
2021/05/24 07:07:15;;;;;;;1.30;1.20;;;;;;;11.10;78.50;95311.31;5028310;28;20224;-65
2021/05/24 07:09:42;;;;;;;2.60;2.40;;;;;;;11.19;78.21;95312.78;5032450;28;20234;-64
2021/05/24 07:12:10;;;;;;;0.57;0.53;;;;;;;11.27;77.64;95306.53;5034465;28;20238;-65
2021/05/24 07:14:42;;;;;;;0.40;0.40;;;;;;;11.29;78.20;95301.84;5022862;28;20314;-65
2021/05/24 07:17:10;;;;;;;0.30;0.30;;;;;;;11.33;79.05;95297.78;5023556;28;20316;-65
2021/05/24 07:19:37;;;;;;;1.33;0.60;;;;;;;11.39;77.73;95307.59;5024321;28;20306;-64
2021/05/24 07:22:05;;;;;;;0.80;0.73;;;;;;;11.41;77.11;95297.63;5019836;28;20795;-64
2021/05/24 07:24:33;;;;;;;0.67;0.67;;;;;;;11.54;78.11;95291.59;5023284;28;20328;-65
2021/05/24 07:27:01;;;;;;;14.37;8.57;;;;;;;11.69;77.01;95287.75;5022483;28;20231;-65
2021/05/24 07:29:29;;;;;;;4.53;4.13;;;;;;;11.83;77.29;95283.34;5020076;28;20223;-64
2021/05/24 07:31:57;;;;;;;1.30;1.07;;;;;;;11.96;77.44;95290.47;5035842;28;20704;-65
2021/05/24 07:34:24;;;;;;;4.57;3.00;;;;;;;12.05;76.47;95291.91;5039536;28;20249;-65
2021/05/24 07:36:52;;;;;;;1.80;1.70;;;;;;;12.11;75.15;95283.19;5027834;28;20285;-64
2021/05/24 07:39:19;;;;;;;0.30;0.30;;;;;;;12.17;75.47;95285.03;5030849;28;20382;-66
2021/05/24 07:41:47;;;;;;;2.77;2.57;;;;;;;12.22;74.39;95282.56;5044992;28;20250;-65
2021/05/24 07:44:14;;;;;;;5.63;2.67;;;;;;;12.12;74.69;95292.75;5040332;28;20309;-68
2021/05/24 07:46:42;;;;;;;2.83;1.93;;;;;;;12.24;74.35;95290.31;5042671;28;20223;-65
2021/05/24 07:49:09;;;;;;;1.37;1.13;;;;;;;12.25;73.60;95289.28;5054498;28;20302;-65
2021/05/24 07:51:37;;;;;;;8.77;6.97;;;;;;;12.29;74.06;95287.06;5055714;28;20631;-64
2021/05/24 07:54:04;;;;;;;0.80;0.60;;;;;;;12.13;74.38;95297.00;5060389;28;20293;-65
2021/05/24 07:56:32;;;;;;;0.67;0.67;;;;;;;12.12;73.53;95298.03;5025812;28;20231;-64
2021/05/24 07:59:00;;;;;;;2.53;2.33;;;;;;;12.08;74.21;95299.47;5049225;28;20218;-65
2021/05/24 08:01:27;;;;;;;0.80;0.60;;;;;;;12.11;74.50;95295.59;5045804;28;20309;-65
2021/05/24 08:03:54;;;;;;;0.97;0.90;;;;;;;12.19;74.85;95298.88;5039814;28;20269;-65
2021/05/24 08:06:22;;;;;;;1.17;1.07;;;;;;;12.28;74.86;95293.38;5042035;28;20300;-65
2021/05/24 08:08:50;;;;;;;0.63;0.40;;;;;;;12.39;74.90;95300.69;5048144;28;20280;-64
2021/05/24 08:11:17;;;;;;;0.50;0.50;;;;;;;12.47;74.64;95305.78;5042760;28;20245;-65
2021/05/24 08:13:45;;;;;;;0.50;0.50;;;;;;;12.55;74.25;95312.72;5055263;28;20932;-65
2021/05/24 08:16:14;;;;;;;4.03;0.57;;;;;;;12.55;74.13;95316.19;5025152;28;20274;-64
2021/05/24 08:18:42;;;;;;;1.23;1.00;;;;;;;12.67;74.63;95317.19;5025029;28;20219;-64
2021/05/24 08:21:10;;;;;;;1.03;0.77;;;;;;;12.77;74.69;95319.41;5024295;28;20308;-65
2021/05/24 08:23:40;;;;;;;0.40;0.40;;;;;;;12.71;73.80;95318.41;5040813;28;20220;-65
2021/05/24 08:26:07;;;;;;;1.10;0.40;;;;;;;12.71;74.82;95329.00;5045076;28;20213;-65
2021/05/24 08:28:35;;;;;;;0.43;0.40;;;;;;;12.74;74.77;95327.78;5051288;28;20225;-65
2021/05/24 08:31:03;;;;;;;3.13;0.90;;;;;;;12.74;74.67;95310.03;5043805;28;20255;-66
2021/05/24 08:33:32;;;;;;;0.93;0.47;;;;;;;12.74;73.91;95312.69;5043443;28;20284;-65
2021/05/24 08:35:59;;;;;;;4.50;1.47;;;;;;;12.72;74.98;95325.34;5042788;28;20211;-65
2021/05/24 08:38:27;;;;;;;1.63;0.53;;;;;;;12.66;75.76;95320.84;5044721;28;20253;-65
2021/05/24 08:40:55;;;;;;;0.60;0.60;;;;;;;12.59;75.35;95309.44;5046127;28;20254;-65
2021/05/24 08:43:22;;;;;;;0.80;0.80;;;;;;;12.49;76.13;95304.56;5051940;28;20601;-65
2021/05/24 08:45:50;;;;;;;5.00;0.83;;;;;;;12.59;75.37;95287.44;5049044;28;20475;-63
2021/05/24 08:48:18;;;;;;;2.40;0.40;;;;;;;12.61;74.92;95288.06;5048960;28;20481;-65
2021/05/24 08:50:46;;;;;;;0.83;0.30;;;;;;;12.72;75.29;95277.69;5052341;28;20555;-64
2021/05/24 08:53:13;;;;;;;0.87;0.87;;;;;;;12.82;75.13;95278.06;5034911;28;20287;-66
2021/05/24 08:55:41;;;;;;;1.10;0.40;;;;;;;12.91;74.85;95272.53;5040853;28;20226;-63
2021/05/24 08:58:09;;;;;;;0.63;0.63;;;;;;;13.07;75.31;95264.13;5037049;28;20241;-65
2021/05/24 09:00:37;;;;;;;0.60;0.60;;;;;;;13.34;74.56;95249.78;5042696;28;20230;-64
2021/05/24 09:03:04;;;;;;;0.50;0.50;;;;;;;13.51;73.67;95249.31;5050507;28;20215;-64
2021/05/24 09:05:33;;;;;;;4.40;0.50;;;;;;;13.57;73.07;95245.81;5033993;28;20215;-65
2021/05/24 09:08:04;;;;;;;0.37;0.30;;;;;;;13.63;72.51;95248.44;5041159;28;20292;-65
2021/05/24 09:10:35;;;;;;;0.77;0.43;;;;;;;13.71;73.34;95247.34;5032475;28;20657;-65
2021/05/24 09:13:09;;;;;;;2.47;1.80;;;;;;;13.84;72.86;95244.63;5042606;28;20234;-65
2021/05/24 09:15:41;;;;;;;0.30;0.30;;;;;;;13.98;72.73;95255.94;5044074;28;20231;-66
2021/05/24 09:18:10;;;;;;;0.33;0.30;;;;;;;14.16;71.82;95263.97;5034598;28;20310;-65
2021/05/24 09:20:39;;;;;;;0.43;0.40;;;;;;;14.48;72.38;95248.88;5039913;28;20573;-63
2021/05/24 09:23:16;;;;;;;0.50;0.33;;;;;;;14.76;72.95;95258.22;5038542;28;20222;-64
2021/05/24 09:25:53;;;;;;;0.77;0.67;;;;;;;14.95;69.72;95257.19;5055426;28;20299;-65
2021/05/24 09:28:28;;;;;;;0.50;0.30;;;;;;;14.96;68.23;95248.19;5042748;28;20611;-65
2021/05/24 09:30:57;;;;;;;0.50;0.40;;;;;;;14.86;68.41;95253.19;5037855;28;20641;-64
2021/05/24 09:33:24;;;;;;;2.53;0.40;;;;;;;14.81;67.72;95247.72;5032002;28;20835;-65
2021/05/24 09:35:52;;;;;;;2.73;0.53;;;;;;;14.73;67.43;95245.38;5042336;28;20213;-64
2021/05/24 09:38:25;;;;;;;0.23;0.23;;;;;;;14.66;68.43;95248.09;5035012;28;20249;-64
2021/05/24 09:40:59;;;;;;;0.30;0.30;;;;;;;14.56;68.30;95246.97;5045791;28;20242;-65
2021/05/24 09:43:31;;;;;;;0.33;0.30;;;;;;;14.58;69.17;95244.91;5041288;28;20530;-65
2021/05/24 09:46:14;;;;;;;0.57;0.57;;;;;;;14.61;68.75;95250.56;5030741;28;20704;-64
2021/05/24 09:48:43;;;;;;;1.10;1.00;;;;;;;14.71;67.66;95250.06;5036571;28;20226;-64
2021/05/24 09:51:13;;;;;;;0.77;0.77;;;;;;;14.63;69.14;95248.53;5039403;28;20227;-65
2021/05/24 09:53:54;;;;;;;2.37;1.87;;;;;;;14.65;69.48;95240.34;5032082;28;20218;-65
2021/05/24 09:56:22;;;;;;;0.90;0.90;;;;;;;14.84;68.48;95236.66;5034256;28;20277;-65
2021/05/24 09:59:01;;;;;;;0.77;0.60;;;;;;;14.93;67.78;95248.63;5035396;28;20487;-65
2021/05/24 10:01:35;;;;;;;1.70;0.50;;;;;;;14.94;67.41;95236.97;5034682;28;20219;-64
2021/05/24 10:04:04;;;;;;;2.57;1.17;;;;;;;14.91;67.87;95242.72;5043214;28;20614;-65
2021/05/24 10:06:32;;;;;;;1.60;1.53;;;;;;;15.12;69.38;95244.13;5029827;28;20223;-65
2021/05/24 10:09:01;;;;;;;0.90;0.90;;;;;;;15.45;68.66;95241.06;5043475;28;20693;-64
2021/05/24 10:11:29;;;;;;;0.80;0.80;;;;;;;15.74;66.70;95242.16;5044990;28;20243;-65
2021/05/24 10:13:58;;;;;;;0.97;0.83;;;;;;;15.83;66.61;95243.47;5037412;28;20632;-65
2021/05/24 10:16:30;;;;;;;3.87;1.23;;;;;;;15.94;64.90;95249.84;5055774;28;20264;-65
2021/05/24 10:18:58;;;;;;;0.60;0.60;;;;;;;16.08;65.55;95255.78;5039168;28;20246;-66
2021/05/24 10:21:26;;;;;;;0.47;0.47;;;;;;;16.25;66.27;95258.59;5029225;28;20265;-65
2021/05/24 10:23:54;;;;;;;1.53;1.37;;;;;;;16.23;63.57;95263.34;5030429;28;20227;-65
2021/05/24 10:26:24;;;;;;;0.40;0.40;;;;;;;16.40;62.79;95248.31;5048200;28;20215;-65
2021/05/24 10:28:53;;;;;;;0.63;0.60;;;;;;;16.48;63.39;95226.69;5034371;28;20272;-65
2021/05/24 10:31:22;;;;;;;2.53;0.97;;;;;;;16.53;64.78;95232.09;5026407;28;20219;-65
2021/05/24 10:33:50;;;;;;;1.23;0.77;;;;;;;16.64;64.25;95223.31;5013262;28;20236;-64
2021/05/24 10:36:25;;;;;;;0.80;0.67;;;;;;;16.65;62.80;95208.97;5019205;28;20288;-64
2021/05/24 10:39:10;;;;;;;0.83;0.83;;;;;;;16.70;63.53;95206.44;5018108;28;20227;-65
2021/05/24 10:41:47;;;;;;;0.93;0.93;;;;;;;16.82;64.85;95198.41;5017535;28;20247;-64
2021/05/24 10:44:16;;;;;;;2.20;1.80;;;;;;;17.00;64.25;95200.94;5013981;28;20287;-65
2021/05/24 10:46:44;;;;;;;1.10;0.93;;;;;;;17.11;62.76;95201.16;5031343;28;20223;-64
2021/05/24 10:49:19;;;;;;;1.07;0.80;;;;;;;17.12;65.20;95197.44;5031339;28;20234;-65
2021/05/24 10:52:10;;;;;;;0.70;0.70;;;;;;;17.23;61.89;95200.09;5016017;28;20223;-64
2021/05/24 10:54:42;;;;;;;0.53;0.53;;;;;;;17.06;62.98;95188.53;5016549;28;20232;-64
2021/05/24 10:57:15;;;;;;;3.10;0.30;;;;;;;17.08;62.76;95190.94;5015698;28;20250;-65
2021/05/24 10:59:54;;;;;;;0.50;0.50;;;;;;;17.01;62.46;95185.78;5011189;28;20275;-65
2021/05/24 11:02:36;;;;;;;0.83;0.83;;;;;;;16.97;62.51;95173.94;5012757;28;20793;-66
2021/05/24 11:05:19;;;;;;;0.60;0.60;;;;;;;16.92;61.56;95176.53;5027818;28;20228;-65
2021/05/24 11:07:48;;;;;;;0.57;0.57;;;;;;;16.87;61.52;95173.75;5023609;28;20536;-65
2021/05/24 11:10:27;;;;;;;0.60;0.57;;;;;;;16.92;60.71;95173.84;5006690;28;20243;-65
2021/05/24 11:13:17;;;;;;;2.07;0.93;;;;;;;17.06;60.30;95173.34;5020110;28;20230;-65
2021/05/24 11:15:46;;;;;;;3.47;1.47;;;;;;;16.97;61.12;95165.94;5038738;28;20246;-65
2021/05/24 11:18:18;;;;;;;0.77;0.77;;;;;;;16.82;60.20;95168.28;5016678;28;20261;-65
2021/05/24 11:20:49;;;;;;;2.80;1.43;;;;;;;16.72;61.50;95161.69;5021682;28;20212;-65
2021/05/24 11:23:27;;;;;;;0.73;0.73;;;;;;;16.97;62.52;95165.94;5022664;28;20971;-64
2021/05/24 11:26:16;;;;;;;2.87;0.80;;;;;;;17.36;61.72;95156.31;5005121;28;20319;-65
2021/05/24 11:28:50;;;;;;;0.97;0.80;;;;;;;17.68;61.09;95143.28;5033553;28;20699;-64
2021/05/24 11:31:19;;;;;;;0.67;0.67;;;;;;;18.13;58.79;95139.78;5038361;28;20238;-65
2021/05/24 11:33:51;;;;;;;2.53;1.33;;;;;;;18.44;58.80;95147.19;5038370;28;20273;-65
2021/05/24 11:36:40;;;;;;;1.27;1.17;;;;;;;18.77;58.49;95140.22;5031055;28;20281;-65
2021/05/24 11:39:11;;;;;;;0.83;0.83;;;;;;;19.30;57.77;95136.03;5033724;28;21084;-65
2021/05/24 11:41:44;;;;;;;0.40;0.30;;;;;;;19.56;57.67;95121.88;5037835;28;20610;-66
2021/05/24 11:44:12;;;;;;;0.70;0.70;;;;;;;19.67;56.86;95106.72;5051226;28;20230;-65
2021/05/24 11:46:44;;;;;;;0.67;0.63;;;;;;;19.93;57.07;95106.94;5057059;28;20250;-64